sensor_id;sensor_type;location;lat;lon;timestamp;pressure;altitude;pressure_sealevel;temperature;humidity
47726;BME280;33483;48.294;16.388;2023-04-03T00:00:32;100010.88;;;5.12;100.00
47726;BME280;33483;48.294;16.388;2023-04-03T00:03:14;100004.34;;;5.09;100.00
47726;BME280;33483;48.294;16.388;2023-04-03T00:05:41;100014.09;;;5.10;100.00
47726;BME280;33483;48.294;16.388;2023-04-03T00:08:09;100014.38;;;5.12;100.00
47726;BME280;33483;48.294;16.388;2023-04-03T00:10:38;100005.88;;;5.10;100.00
47726;BME280;33483;48.294;16.388;2023-04-03T00:13:06;100011.06;;;5.08;100.00
47726;BME280;33483;48.294;16.388;2023-04-03T00:15:33;100005.88;;;5.10;100.00
47726;BME280;33483;48.294;16.388;2023-04-03T00:18:01;100008.59;;;5.10;100.00
47726;BME280;33483;48.294;16.388;2023-04-03T00:20:29;100013.53;;;5.06;100.00
47726;BME280;33483;48.294;16.388;2023-04-03T00:22:56;100015.81;;;5.08;100.00
47726;BME280;33483;48.294;16.388;2023-04-03T00:25:23;100012.31;;;5.07;100.00
47726;BME280;33483;48.294;16.388;2023-04-03T00:27:50;100019.78;;;5.07;100.00
47726;BME280;33483;48.294;16.388;2023-04-03T00:30:20;100009.28;;;5.05;100.00
47726;BME280;33483;48.294;16.388;2023-04-03T00:32:48;100010.03;;;5.06;100.00
47726;BME280;33483;48.294;16.388;2023-04-03T00:35:16;100005.28;;;5.06;100.00
47726;BME280;33483;48.294;16.388;2023-04-03T00:37:46;100004.00;;;5.02;100.00
47726;BME280;33483;48.294;16.388;2023-04-03T00:40:14;99995.47;;;5.00;100.00
47726;BME280;33483;48.294;16.388;2023-04-03T00:42:42;99991.69;;;4.97;100.00
47726;BME280;33483;48.294;16.388;2023-04-03T00:48:14;100007.13;;;4.95;100.00
47726;BME280;33483;48.294;16.388;2023-04-03T00:50:42;100005.91;;;4.96;100.00
47726;BME280;33483;48.294;16.388;2023-04-03T00:53:17;99993.41;;;4.95;100.00
47726;BME280;33483;48.294;16.388;2023-04-03T00:55:44;100003.63;;;4.94;100.00
47726;BME280;33483;48.294;16.388;2023-04-03T00:58:13;100014.41;;;4.98;100.00
47726;BME280;33483;48.294;16.388;2023-04-03T01:00:43;100015.09;;;4.93;100.00
47726;BME280;33483;48.294;16.388;2023-04-03T01:03:13;100014.34;;;4.92;100.00
47726;BME280;33483;48.294;16.388;2023-04-03T01:05:43;100012.63;;;4.95;100.00
47726;BME280;33483;48.294;16.388;2023-04-03T01:08:10;100012.63;;;4.95;100.00
47726;BME280;33483;48.294;16.388;2023-04-03T01:10:38;100019.16;;;4.97;100.00
47726;BME280;33483;48.294;16.388;2023-04-03T01:13:25;100015.38;;;4.95;100.00
47726;BME280;33483;48.294;16.388;2023-04-03T01:15:53;100022.09;;;4.94;100.00
47726;BME280;33483;48.294;16.388;2023-04-03T01:18:21;100015.09;;;4.93;100.00
47726;BME280;33483;48.294;16.388;2023-04-03T01:23:26;100021.16;;;4.97;100.00
47726;BME280;33483;48.294;16.388;2023-04-03T01:25:58;100023.63;;;4.95;100.00
47726;BME280;33483;48.294;16.388;2023-04-03T01:28:29;100033.06;;;4.94;100.00
47726;BME280;33483;48.294;16.388;2023-04-03T01:33:24;100025.03;;;4.90;100.00
47726;BME280;33483;48.294;16.388;2023-04-03T01:35:51;100021.81;;;4.92;100.00
47726;BME280;33483;48.294;16.388;2023-04-03T01:38:19;100029.31;;;4.91;100.00
47726;BME280;33483;48.294;16.388;2023-04-03T01:40:47;100031.09;;;4.94;100.00
47726;BME280;33483;48.294;16.388;2023-04-03T01:43:14;100028.63;;;4.96;100.00
47726;BME280;33483;48.294;16.388;2023-04-03T01:45:41;100031.84;;;4.95;100.00
47726;BME280;33483;48.294;16.388;2023-04-03T01:48:09;100031.84;;;4.95;100.00
47726;BME280;33483;48.294;16.388;2023-04-03T01:50:36;100024.56;;;4.92;100.00
47726;BME280;33483;48.294;16.388;2023-04-03T01:53:05;100022.38;;;4.96;100.00
47726;BME280;33483;48.294;16.388;2023-04-03T01:55:32;100025.13;;;4.96;100.00
47726;BME280;33483;48.294;16.388;2023-04-03T01:58:00;100021.81;;;4.92;100.00
47726;BME280;33483;48.294;16.388;2023-04-03T02:00:27;100027.03;;;4.90;100.00
47726;BME280;33483;48.294;16.388;2023-04-03T02:02:54;100031.78;;;4.89;100.00
47726;BME280;33483;48.294;16.388;2023-04-03T02:05:25;100027.78;;;4.90;100.00
47726;BME280;33483;48.294;16.388;2023-04-03T02:07:52;100034.81;;;4.91;100.00
47726;BME280;33483;48.294;16.388;2023-04-03T02:10:19;100031.28;;;4.91;100.00
47726;BME280;33483;48.294;16.388;2023-04-03T02:12:47;100033.47;;;4.87;100.00
47726;BME280;33483;48.294;16.388;2023-04-03T02:15:14;100038.22;;;4.86;100.00
47726;BME280;33483;48.294;16.388;2023-04-03T02:17:42;100038.22;;;4.86;100.00
47726;BME280;33483;48.294;16.388;2023-04-03T02:20:09;100031.97;;;4.86;100.00
47726;BME280;33483;48.294;16.388;2023-04-03T02:22:36;100042.19;;;4.85;100.00
47726;BME280;33483;48.294;16.388;2023-04-03T02:25:03;100031.47;;;4.87;100.00
47726;BME280;33483;48.294;16.388;2023-04-03T02:27:31;100038.97;;;4.87;100.00
47726;BME280;33483;48.294;16.388;2023-04-03T02:29:58;100045.41;;;4.84;100.00
47726;BME280;33483;48.294;16.388;2023-04-03T02:32:25;100045.69;;;4.86;100.00
47726;BME280;33483;48.294;16.388;2023-04-03T02:34:53;100046.66;;;4.83;100.00
47726;BME280;33483;48.294;16.388;2023-04-03T02:37:20;100045.41;;;4.84;100.00
47726;BME280;33483;48.294;16.388;2023-04-03T02:39:49;100057.34;;;4.81;100.00
47726;BME280;33483;48.294;16.388;2023-04-03T02:42:16;100052.41;;;4.85;100.00
47726;BME280;33483;48.294;16.388;2023-04-03T02:44:46;100054.41;;;4.84;100.00
47726;BME280;33483;48.294;16.388;2023-04-03T02:47:13;100055.16;;;4.85;100.00
47726;BME280;33483;48.294;16.388;2023-04-03T02:49:40;100045.97;;;4.88;100.00
47726;BME280;33483;48.294;16.388;2023-04-03T02:52:09;100053.44;;;4.87;100.00
47726;BME280;33483;48.294;16.388;2023-04-03T02:54:36;100054.22;;;4.88;100.00
47726;BME280;33483;48.294;16.388;2023-04-03T02:57:07;100059.91;;;4.84;100.00
47726;BME280;33483;48.294;16.388;2023-04-03T02:59:37;100052.41;;;4.85;100.00
47726;BME280;33483;48.294;16.388;2023-04-03T03:02:09;100055.63;;;4.83;100.00
47726;BME280;33483;48.294;16.388;2023-04-03T03:04:37;100059.63;;;4.82;100.00
47726;BME280;33483;48.294;16.388;2023-04-03T03:07:04;100062.38;;;4.82;100.00
47726;BME280;33483;48.294;16.388;2023-04-03T03:09:31;100064.53;;;4.78;100.00
47726;BME280;33483;48.294;16.388;2023-04-03T03:11:59;100059.06;;;4.78;100.00
47726;BME280;33483;48.294;16.388;2023-04-03T03:14:26;100067.38;;;4.84;100.00
47726;BME280;33483;48.294;16.388;2023-04-03T03:16:53;100066.34;;;4.81;100.00
47726;BME280;33483;48.294;16.388;2023-04-03T03:19:23;100062.84;;;4.81;100.00
47726;BME280;33483;48.294;16.388;2023-04-03T03:21:52;100059.81;;;4.79;100.00
47726;BME280;33483;48.294;16.388;2023-04-03T03:24:20;100068.53;;;4.77;100.00
47726;BME280;33483;48.294;16.388;2023-04-03T03:26:47;100065.03;;;4.77;100.00
47726;BME280;33483;48.294;16.388;2023-04-03T03:29:15;100069.28;;;4.78;100.00
47726;BME280;33483;48.294;16.388;2023-04-03T03:31:43;100069.28;;;4.78;100.00
47726;BME280;33483;48.294;16.388;2023-04-03T03:34:10;100078.47;;;4.75;100.00
47726;BME280;33483;48.294;16.388;2023-04-03T03:36:38;100071.19;;;4.72;100.00
47726;BME280;33483;48.294;16.388;2023-04-03T03:39:10;100077.63;;;4.69;100.00
47726;BME280;33483;48.294;16.388;2023-04-03T03:41:37;100077.06;;;4.65;100.00
47726;BME280;33483;48.294;16.388;2023-04-03T03:44:05;100081.50;;;4.62;100.00
47726;BME280;33483;48.294;16.388;2023-04-03T03:46:33;100072.81;;;4.64;100.00
47726;BME280;33483;48.294;16.388;2023-04-03T03:49:01;100074.03;;;4.63;100.00
47726;BME280;33483;48.294;16.388;2023-04-03T03:51:27;100082.25;;;4.63;100.00
47726;BME280;33483;48.294;16.388;2023-04-03T03:53:56;100081.50;;;4.62;100.00
47726;BME280;33483;48.294;16.388;2023-04-03T03:56:23;100077.25;;;4.61;100.00
47726;BME280;33483;48.294;16.388;2023-04-03T03:58:51;100083.97;;;4.60;100.00
47726;BME280;33483;48.294;16.388;2023-04-03T04:01:23;100085.66;;;4.57;100.00
47726;BME280;33483;48.294;16.388;2023-04-03T04:03:51;100085.66;;;4.57;100.00
47726;BME280;33483;48.294;16.388;2023-04-03T04:06:21;100083.22;;;4.59;100.00
47726;BME280;33483;48.294;16.388;2023-04-03T04:08:53;100079.13;;;4.55;100.00
47726;BME280;33483;48.294;16.388;2023-04-03T04:11:20;100083.31;;;4.50;100.00
47726;BME280;33483;48.294;16.388;2023-04-03T04:13:50;100078.88;;;4.53;100.00
47726;BME280;33483;48.294;16.388;2023-04-03T04:16:20;100082.72;;;4.46;100.00
47726;BME280;33483;48.294;16.388;2023-04-03T04:18:50;100077.72;;;4.45;100.00
47726;BME280;33483;48.294;16.388;2023-04-03T04:21:18;100083.69;;;4.43;100.00
47726;BME280;33483;48.294;16.388;2023-04-03T04:23:49;100086.88;;;4.42;100.00
47726;BME280;33483;48.294;16.388;2023-04-03T04:26:16;100081.13;;;4.40;100.00
47726;BME280;33483;48.294;16.388;2023-04-03T04:28:44;100085.09;;;4.39;100.00
47726;BME280;33483;48.294;16.388;2023-04-03T04:31:11;100090.88;;;4.41;100.00
47726;BME280;33483;48.294;16.388;2023-04-03T04:33:39;100089.81;;;4.38;100.00
47726;BME280;33483;48.294;16.388;2023-04-03T04:36:09;100098.06;;;4.38;100.00
47726;BME280;33483;48.294;16.388;2023-04-03T04:38:37;100090.13;;;4.40;100.00
47726;BME280;33483;48.294;16.388;2023-04-03T04:41:06;100097.75;;;4.36;100.00
47726;BME280;33483;48.294;16.388;2023-04-03T04:43:34;100097.75;;;4.36;100.00
47726;BME280;33483;48.294;16.388;2023-04-03T04:46:06;100101.09;;;4.40;100.00
47726;BME280;33483;48.294;16.388;2023-04-03T04:48:38;100096.81;;;4.39;100.00
47726;BME280;33483;48.294;16.388;2023-04-03T04:51:08;100104.50;;;4.35;100.00
47726;BME280;33483;48.294;16.388;2023-04-03T04:53:37;100102.22;;;4.34;100.00
47726;BME280;33483;48.294;16.388;2023-04-03T04:56:04;100102.78;;;4.38;100.00
47726;BME280;33483;48.294;16.388;2023-04-03T04:58:34;100098.34;;;4.40;100.00
47726;BME280;33483;48.294;16.388;2023-04-03T05:01:04;100101.56;;;4.39;100.00
47726;BME280;33483;48.294;16.388;2023-04-03T05:03:35;100100.03;;;4.38;100.00
47726;BME280;33483;48.294;16.388;2023-04-03T05:06:03;100109.50;;;4.37;100.00
47726;BME280;33483;48.294;16.388;2023-04-03T05:08:32;100104.50;;;4.35;100.00
47726;BME280;33483;48.294;16.388;2023-04-03T05:11:00;100105.72;;;4.34;100.00
47726;BME280;33483;48.294;16.388;2023-04-03T05:13:31;100107.72;;;4.34;100.00
47726;BME280;33483;48.294;16.388;2023-04-03T05:15:58;100106.66;;;4.31;100.00
47726;BME280;33483;48.294;16.388;2023-04-03T05:18:28;100113.94;;;4.34;100.00
47726;BME280;33483;48.294;16.388;2023-04-03T05:20:58;100113.75;;;4.38;100.00
47726;BME280;33483;48.294;16.388;2023-04-03T05:23:26;100109.31;;;4.40;100.00
47726;BME280;33483;48.294;16.388;2023-04-03T05:25:55;100115.28;;;4.39;100.00
47726;BME280;33483;48.294;16.388;2023-04-03T05:28:23;100127.28;;;4.41;100.00
47726;BME280;33483;48.294;16.388;2023-04-03T05:30:54;100134.78;;;4.55;100.00
47726;BME280;33483;48.294;16.388;2023-04-03T05:33:24;100127.88;;;5.04;100.00
47726;BME280;33483;48.294;16.388;2023-04-03T05:35:53;100132.72;;;5.09;100.00
47726;BME280;33483;48.294;16.388;2023-04-03T05:38:26;100143.31;;;4.87;100.00
47726;BME280;33483;48.294;16.388;2023-04-03T05:40:56;100143.31;;;4.87;100.00
47726;BME280;33483;48.294;16.388;2023-04-03T05:43:24;100140.03;;;4.83;100.00
47726;BME280;33483;48.294;16.388;2023-04-03T05:45:51;100140.69;;;4.78;100.00
47726;BME280;33483;48.294;16.388;2023-04-03T05:48:21;100140.28;;;4.70;100.00
47726;BME280;33483;48.294;16.388;2023-04-03T05:50:48;100144.19;;;4.64;100.00
47726;BME280;33483;48.294;16.388;2023-04-03T05:53:22;100150.13;;;4.62;100.00
47726;BME280;33483;48.294;16.388;2023-04-03T05:55:51;100146.34;;;4.59;100.00
47726;BME280;33483;48.294;16.388;2023-04-03T05:58:18;100146.34;;;4.59;100.00
47726;BME280;33483;48.294;16.388;2023-04-03T06:00:48;100147.97;;;4.51;100.00
47726;BME280;33483;48.294;16.388;2023-04-03T06:03:15;100149.47;;;4.52;100.00
47726;BME280;33483;48.294;16.388;2023-04-03T06:05:44;100150.03;;;4.56;100.00
47726;BME280;33483;48.294;16.388;2023-04-03T06:08:11;100152.38;;;4.49;100.00
47726;BME280;33483;48.294;16.388;2023-04-03T06:10:39;100158.28;;;4.56;100.00
47726;BME280;33483;48.294;16.388;2023-04-03T06:13:09;100169.81;;;4.46;100.00
47726;BME280;33483;48.294;16.388;2023-04-03T06:15:37;100173.03;;;4.44;100.00
47726;BME280;33483;48.294;16.388;2023-04-03T06:18:08;100162.03;;;4.44;100.00
47726;BME280;33483;48.294;16.388;2023-04-03T06:20:40;100170.91;;;4.39;100.00
47726;BME280;33483;48.294;16.388;2023-04-03T06:23:09;100169.97;;;4.42;100.00
47726;BME280;33483;48.294;16.388;2023-04-03T06:25:37;100165.16;;;4.52;100.00
47726;BME280;33483;48.294;16.388;2023-04-03T06:28:04;100176.31;;;4.48;100.00
47726;BME280;33483;48.294;16.388;2023-04-03T06:30:31;100177.56;;;4.47;100.00
47726;BME280;33483;48.294;16.388;2023-04-03T06:32:58;100181.91;;;4.54;100.00
47726;BME280;33483;48.294;16.388;2023-04-03T06:35:26;100177.44;;;4.42;100.00
47726;BME280;33483;48.294;16.388;2023-04-03T06:37:55;100182.16;;;4.41;100.00
47726;BME280;33483;48.294;16.388;2023-04-03T06:40:23;100189.09;;;4.37;100.00
47726;BME280;33483;48.294;16.388;2023-04-03T06:42:50;100183.78;;;4.33;100.00
47726;BME280;33483;48.294;16.388;2023-04-03T06:45:18;100189.66;;;4.41;100.00
47726;BME280;33483;48.294;16.388;2023-04-03T06:47:46;100193.44;;;4.43;100.00
47726;BME280;33483;48.294;16.388;2023-04-03T06:50:14;100195.41;;;4.43;100.00
47726;BME280;33483;48.294;16.388;2023-04-03T06:52:42;100205.00;;;4.47;100.00
47726;BME280;33483;48.294;16.388;2023-04-03T06:55:11;100205.38;;;4.40;100.00
47726;BME280;33483;48.294;16.388;2023-04-03T06:57:38;100211.97;;;4.34;100.00
47726;BME280;33483;48.294;16.388;2023-04-03T07:00:05;100203.56;;;4.37;100.00
47726;BME280;33483;48.294;16.388;2023-04-03T07:02:34;100204.31;;;4.38;100.00
47726;BME280;33483;48.294;16.388;2023-04-03T07:05:01;100200.84;;;4.52;100.00
47726;BME280;33483;48.294;16.388;2023-04-03T07:07:29;100204.06;;;4.50;100.00
47726;BME280;33483;48.294;16.388;2023-04-03T07:09:56;100209.47;;;4.59;100.00
47726;BME280;33483;48.294;16.388;2023-04-03T07:12:23;100215.63;;;4.69;100.00
47726;BME280;33483;48.294;16.388;2023-04-03T07:14:51;100205.63;;;4.81;100.00
47726;BME280;33483;48.294;16.388;2023-04-03T07:17:20;100218.50;;;4.89;100.00
47726;BME280;33483;48.294;16.388;2023-04-03T07:19:47;100216.72;;;5.01;100.00
47726;BME280;33483;48.294;16.388;2023-04-03T07:22:15;100227.25;;;5.17;100.00
47726;BME280;33483;48.294;16.388;2023-04-03T07:24:42;100231.03;;;5.34;100.00
47726;BME280;33483;48.294;16.388;2023-04-03T07:27:10;100225.81;;;5.36;100.00
47726;BME280;33483;48.294;16.388;2023-04-03T07:29:41;100238.78;;;5.50;100.00
47726;BME280;33483;48.294;16.388;2023-04-03T07:32:11;100245.19;;;5.61;93.66
47726;BME280;33483;48.294;16.388;2023-04-03T07:34:38;100246.31;;;5.84;89.49
47726;BME280;33483;48.294;16.388;2023-04-03T07:37:05;100242.94;;;5.89;84.67
47726;BME280;33483;48.294;16.388;2023-04-03T07:39:33;100247.28;;;6.16;82.08
47726;BME280;33483;48.294;16.388;2023-04-03T07:42:00;100245.44;;;6.67;77.79
47726;BME280;33483;48.294;16.388;2023-04-03T07:44:30;100244.59;;;6.81;74.28
47726;BME280;33483;48.294;16.388;2023-04-03T07:47:00;100250.25;;;7.49;73.66
47726;BME280;33483;48.294;16.388;2023-04-03T07:49:27;100244.78;;;7.91;67.85
47726;BME280;33483;48.294;16.388;2023-04-03T07:51:54;100255.72;;;8.65;63.03
47726;BME280;33483;48.294;16.388;2023-04-03T07:54:21;100259.69;;;9.78;57.72
47726;BME280;33483;48.294;16.388;2023-04-03T07:56:49;100260.78;;;11.00;52.74
47726;BME280;33483;48.294;16.388;2023-04-03T07:59:16;100255.78;;;12.23;49.55
47726;BME280;33483;48.294;16.388;2023-04-03T08:01:43;100266.28;;;13.15;45.32
47726;BME280;33483;48.294;16.388;2023-04-03T08:04:12;100266.34;;;14.18;43.04
47726;BME280;33483;48.294;16.388;2023-04-03T08:06:40;100276.09;;;12.36;43.80
47726;BME280;33483;48.294;16.388;2023-04-03T08:09:16;100273.69;;;13.76;41.49
47726;BME280;33483;48.294;16.388;2023-04-03T08:11:43;100259.94;;;13.33;41.47
47726;BME280;33483;48.294;16.388;2023-04-03T08:14:11;100259.19;;;13.33;41.39
47726;BME280;33483;48.294;16.388;2023-04-03T08:16:44;100262.94;;;12.98;42.57
47726;BME280;33483;48.294;16.388;2023-04-03T08:19:13;100266.63;;;11.38;45.36
47726;BME280;33483;48.294;16.388;2023-04-03T08:21:53;100257.22;;;12.72;42.65
47726;BME280;33483;48.294;16.388;2023-04-03T08:24:20;100272.06;;;13.68;40.45
47726;BME280;33483;48.294;16.388;2023-04-03T08:26:47;100275.09;;;13.83;40.20
47726;BME280;33483;48.294;16.388;2023-04-03T08:29:17;100274.63;;;13.66;39.85
47726;BME280;33483;48.294;16.388;2023-04-03T08:31:46;100268.16;;;14.02;37.72
47726;BME280;33483;48.294;16.388;2023-04-03T08:34:14;100279.81;;;15.05;37.21
47726;BME280;33483;48.294;16.388;2023-04-03T08:36:43;100280.88;;;15.15;37.47
47726;BME280;33483;48.294;16.388;2023-04-03T08:39:10;100292.56;;;14.67;35.50
47726;BME280;33483;48.294;16.388;2023-04-03T08:41:39;100293.84;;;12.52;37.79
47726;BME280;33483;48.294;16.388;2023-04-03T08:49:42;100268.88;;;8.92;46.61
47726;BME280;33483;48.294;16.388;2023-04-03T08:52:20;100270.38;;;8.29;49.66
47726;BME280;33483;48.294;16.388;2023-04-03T08:54:54;100256.03;;;7.51;51.11
47726;BME280;33483;48.294;16.388;2023-04-03T08:57:26;100266.59;;;7.02;54.02
47726;BME280;33483;48.294;16.388;2023-04-03T08:59:55;100259.59;;;6.80;53.47
47726;BME280;33483;48.294;16.388;2023-04-03T09:02:25;100261.97;;;6.67;54.53
47726;BME280;33483;48.294;16.388;2023-04-03T09:04:55;100252.78;;;6.76;56.05
47726;BME280;33483;48.294;16.388;2023-04-03T09:07:25;100256.47;;;6.93;56.11
47726;BME280;33483;48.294;16.388;2023-04-03T09:10:00;100252.06;;;7.27;55.21
47726;BME280;33483;48.294;16.388;2023-04-03T09:12:39;100249.09;;;6.59;55.09
47726;BME280;33483;48.294;16.388;2023-04-03T09:20:21;100254.75;;;6.50;57.50
47726;BME280;33483;48.294;16.388;2023-04-03T09:22:51;100256.66;;;6.64;54.39
47726;BME280;33483;48.294;16.388;2023-04-03T09:25:20;100265.53;;;6.73;53.88
47726;BME280;33483;48.294;16.388;2023-04-03T09:27:49;100265.41;;;6.62;53.48
47726;BME280;33483;48.294;16.388;2023-04-03T09:30:18;100258.38;;;6.61;55.35
47726;BME280;33483;48.294;16.388;2023-04-03T09:32:49;100261.47;;;6.69;56.12
47726;BME280;33483;48.294;16.388;2023-04-03T09:37:54;100277.72;;;6.27;56.72
47726;BME280;33483;48.294;16.388;2023-04-03T09:42:54;100275.38;;;5.85;55.84
47726;BME280;33483;48.294;16.388;2023-04-03T09:45:31;100276.88;;;5.57;55.87
47726;BME280;33483;48.294;16.388;2023-04-03T09:56:00;100296.81;;;5.66;56.16
47726;BME280;33483;48.294;16.388;2023-04-03T09:58:34;100279.06;;;5.53;54.36
47726;BME280;33483;48.294;16.388;2023-04-03T10:04:02;100285.44;;;5.59;55.81
47726;BME280;33483;48.294;16.388;2023-04-03T10:06:31;100279.81;;;5.68;55.68
47726;BME280;33483;48.294;16.388;2023-04-03T10:09:06;100290.63;;;5.71;54.64
47726;BME280;33483;48.294;16.388;2023-04-03T10:11:34;100303.97;;;5.93;54.51
47726;BME280;33483;48.294;16.388;2023-04-03T10:14:02;100294.84;;;6.02;53.47
47726;BME280;33483;48.294;16.388;2023-04-03T10:16:38;100300.16;;;6.05;52.97
47726;BME280;33483;48.294;16.388;2023-04-03T10:19:15;100304.91;;;6.39;51.88
47726;BME280;33483;48.294;16.388;2023-04-03T10:21:50;100289.22;;;6.45;50.35
47726;BME280;33483;48.294;16.388;2023-04-03T10:25:11;100295.13;;;6.38;50.95
47726;BME280;33483;48.294;16.388;2023-04-03T10:32:28;100296.81;;;7.42;48.20
47726;BME280;33483;48.294;16.388;2023-04-03T10:35:13;100298.81;;;7.16;47.60
47726;BME280;33483;48.294;16.388;2023-04-03T10:43:04;100304.22;;;7.87;43.82
47726;BME280;33483;48.294;16.388;2023-04-03T10:48:17;100308.00;;;7.07;44.82
47726;BME280;33483;48.294;16.388;2023-04-03T10:50:56;100297.97;;;6.84;44.67
47726;BME280;33483;48.294;16.388;2023-04-03T10:58:48;100295.75;;;6.88;48.90
47726;BME280;33483;48.294;16.388;2023-04-03T11:01:20;100295.41;;;6.40;49.48
47726;BME280;33483;48.294;16.388;2023-04-03T11:03:49;100294.81;;;6.16;49.37
47726;BME280;33483;48.294;16.388;2023-04-03T11:06:21;100295.13;;;6.04;49.87
47726;BME280;33483;48.294;16.388;2023-04-03T11:08:52;100286.34;;;6.00;50.97
47726;BME280;33483;48.294;16.388;2023-04-03T11:11:27;100293.63;;;6.57;50.33
47726;BME280;33483;48.294;16.388;2023-04-03T11:14:05;100287.84;;;6.75;49.97
47726;BME280;33483;48.294;16.388;2023-04-03T11:16:38;100289.31;;;6.71;49.59
47726;BME280;33483;48.294;16.388;2023-04-03T11:24:41;100291.44;;;6.81;47.21
47726;BME280;33483;48.294;16.388;2023-04-03T11:27:13;100293.50;;;6.66;47.08
47726;BME280;33483;48.294;16.388;2023-04-03T11:29:43;100300.97;;;6.66;43.90
47726;BME280;33483;48.294;16.388;2023-04-03T11:32:56;100292.41;;;6.58;42.11
47726;BME280;33483;48.294;16.388;2023-04-03T11:35:04;100293.63;;;6.57;42.59
47726;BME280;33483;48.294;16.388;2023-04-03T11:37:48;100282.25;;;6.70;42.23
47726;BME280;33483;48.294;16.388;2023-04-03T11:42:52;100279.28;;;6.13;45.85
47726;BME280;33483;48.294;16.388;2023-04-03T11:48:05;100285.50;;;5.94;46.30
47726;BME280;33483;48.294;16.388;2023-04-03T11:50:50;100282.09;;;5.69;46.49
47726;BME280;33483;48.294;16.388;2023-04-03T11:53:41;100285.88;;;5.87;46.06
47726;BME280;33483;48.294;16.388;2023-04-03T12:04:23;100269.94;;;6.25;44.72
47726;BME280;33483;48.294;16.388;2023-04-03T12:06:58;100271.59;;;6.37;45.11
47726;BME280;33483;48.294;16.388;2023-04-03T12:09:29;100282.16;;;6.59;44.98
47726;BME280;33483;48.294;16.388;2023-04-03T12:11:58;100271.81;;;6.74;44.26
47726;BME280;33483;48.294;16.388;2023-04-03T12:14:26;100280.28;;;6.70;44.44
47726;BME280;33483;48.294;16.388;2023-04-03T12:16:57;100285.50;;;6.68;43.16
47726;BME280;33483;48.294;16.388;2023-04-03T12:19:32;100292.41;;;6.58;43.57
47726;BME280;33483;48.294;16.388;2023-04-03T12:22:13;100285.34;;;6.57;43.79
47726;BME280;33483;48.294;16.388;2023-04-03T12:24:45;100284.06;;;6.53;43.70
47726;BME280;33483;48.294;16.388;2023-04-03T12:27:28;100270.91;;;6.22;45.54
47726;BME280;33483;48.294;16.388;2023-04-03T12:35:19;100282.94;;;6.25;42.80
47726;BME280;33483;48.294;16.388;2023-04-03T12:40:35;100265.59;;;6.19;44.79
47726;BME280;33483;48.294;16.388;2023-04-03T12:45:40;100267.25;;;6.31;43.68
47726;BME280;33483;48.294;16.388;2023-04-03T12:48:12;100256.59;;;6.38;44.12
47726;BME280;33483;48.294;16.388;2023-04-03T12:50:41;100266.56;;;6.36;44.00
47726;BME280;33483;48.294;16.388;2023-04-03T12:55:41;100276.13;;;6.20;43.32
47726;BME280;33483;48.294;16.388;2023-04-03T12:58:21;100263.94;;;6.27;43.82
47726;BME280;33483;48.294;16.388;2023-04-03T13:01:02;100264.63;;;6.22;44.05
47726;BME280;33483;48.294;16.388;2023-04-03T13:03:30;100265.81;;;6.35;43.73
47726;BME280;33483;48.294;16.388;2023-04-03T13:06:01;100264.84;;;6.38;43.57
47726;BME280;33483;48.294;16.388;2023-04-03T13:08:30;100264.03;;;6.32;42.53
47726;BME280;33483;48.294;16.388;2023-04-03T13:10:59;100260.31;;;6.55;42.75
47726;BME280;33483;48.294;16.388;2023-04-03T13:13:27;100259.06;;;6.56;43.02
47726;BME280;33483;48.294;16.388;2023-04-03T13:15:55;100253.94;;;6.69;42.59
47726;BME280;33483;48.294;16.388;2023-04-03T13:18:29;100250.94;;;6.67;44.80
47726;BME280;33483;48.294;16.388;2023-04-03T13:21:03;100255.56;;;6.56;44.47
47726;BME280;33483;48.294;16.388;2023-04-03T13:23:32;100260.31;;;6.55;44.79
47726;BME280;33483;48.294;16.388;2023-04-03T13:26:00;100263.50;;;6.48;43.91
47726;BME280;33483;48.294;16.388;2023-04-03T13:28:31;100264.03;;;6.52;44.74
47726;BME280;33483;48.294;16.388;2023-04-03T13:36:30;100267.31;;;6.16;43.10
47726;BME280;33483;48.294;16.388;2023-04-03T13:46:43;100256.53;;;5.98;44.01
47726;BME280;33483;48.294;16.388;2023-04-03T13:51:49;100260.53;;;5.97;45.30
47726;BME280;33483;48.294;16.388;2023-04-03T13:54:35;100248.88;;;6.22;44.94
47726;BME280;33483;48.294;16.388;2023-04-03T13:57:03;100245.25;;;6.31;44.55
47726;BME280;33483;48.294;16.388;2023-04-03T13:59:37;100251.28;;;6.15;43.29
47726;BME280;33483;48.294;16.388;2023-04-03T14:07:12;100244.25;;;6.14;43.67
47726;BME280;33483;48.294;16.388;2023-04-03T14:09:39;100244.69;;;6.27;44.19
47726;BME280;33483;48.294;16.388;2023-04-03T14:14:58;100246.25;;;6.13;44.45
47726;BME280;33483;48.294;16.388;2023-04-03T14:17:26;100240.88;;;6.24;44.64
47726;BME280;33483;48.294;16.388;2023-04-03T14:19:53;100232.56;;;6.19;45.17
47726;BME280;33483;48.294;16.388;2023-04-03T14:22:26;100225.41;;;6.27;45.17
47726;BME280;33483;48.294;16.388;2023-04-03T14:24:55;100224.25;;;6.13;45.10
47726;BME280;33483;48.294;16.388;2023-04-03T14:29:51;100225.84;;;5.85;45.31
47726;BME280;33483;48.294;16.388;2023-04-03T14:32:22;100216.38;;;5.71;44.90
47726;BME280;33483;48.294;16.388;2023-04-03T14:34:50;100222.28;;;5.64;44.71
47726;BME280;33483;48.294;16.388;2023-04-03T14:37:20;100219.03;;;5.66;44.67
47726;BME280;33483;48.294;16.388;2023-04-03T14:39:48;100217.50;;;5.65;44.71
47726;BME280;33483;48.294;16.388;2023-04-03T14:42:17;100215.03;;;5.82;44.47
47726;BME280;33483;48.294;16.388;2023-04-03T14:44:44;100216.03;;;5.99;45.62
47726;BME280;33483;48.294;16.388;2023-04-03T14:47:12;100219.94;;;5.92;45.28